Terminal Aerodrome Forecast
Issued by NWS

Home | Current Version | Previous Version | Text Only | Print | Product List | Glossary On
Versions: 1 2 3 4 5 6 7 8 9 10 11 12 13 14 15 16
000
FTUS43 KDLH 010000 AAA
TAFHIB
TAF AMD
KHIB 010059Z 0101/0124 19005KT P6SM SCT045 BKN090
     FM010300 20015G21KT P6SM -SN SCT019 BKN045
     FM010400 19015G25KT 3SM -SN BKN019 BKN026
      TEMPO 0104/0106 1 1/2SM -SN BKN016 OVC022
     FM010900 22006KT P6SM -SN SCT016 BKN029
     FM011100 25006KT P6SM SCT030
     FM011600 27010KT P6SM BKN035=

USA.gov is the U.S. government's official web portal to all federal, state and local government web resources and services.